createdAt,value
2023-11-13T00:01:37.868Z,99547.30
2023-11-13T00:06:39.943Z,99548.42
2023-11-13T00:11:42.866Z,99545.45
2023-11-13T00:16:44.981Z,99542.39
2023-11-13T00:21:47.637Z,99546.86
2023-11-13T00:26:49.739Z,99550.42
2023-11-13T00:31:51.833Z,99551.24
2023-11-13T00:36:53.891Z,99549.81
2023-11-13T00:41:56.186Z,99555.17
2023-11-13T00:46:58.211Z,99559.94
2023-11-13T00:52:00.796Z,99557.89
2023-11-13T00:57:02.998Z,99560.01
2023-11-13T01:02:05.114Z,99566.32
2023-11-13T01:07:07.551Z,99566.29
2023-11-13T01:12:09.747Z,99571.77
2023-11-13T01:17:11.792Z,99577.20
2023-11-13T01:22:14.103Z,99577.46
2023-11-13T01:27:16.284Z,99576.34
2023-11-13T01:32:18.745Z,99574.01
2023-11-13T01:37:20.806Z,99571.45
2023-11-13T01:42:22.989Z,99574.38
2023-11-13T01:47:25.609Z,99571.31
2023-11-13T01:52:28.538Z,99574.33
2023-11-13T01:57:33.112Z,99576.51
2023-11-13T02:02:35.948Z,99575.63
2023-11-13T02:07:40.224Z,99573.69
2023-11-13T02:12:42.437Z,99567.73
2023-11-13T02:18:04.662Z,99568.61
2023-11-13T02:23:07.214Z,99577.18
2023-11-13T02:28:10.388Z,99577.89
2023-11-13T02:33:12.435Z,99578.73
2023-11-13T02:38:14.613Z,99584.25
2023-11-13T02:43:16.794Z,99583.73
2023-11-13T02:48:19.477Z,99584.55
2023-11-13T02:53:21.675Z,99589.61
2023-11-13T02:58:24.188Z,99599.68
2023-11-13T03:03:27.176Z,99606.34
2023-11-13T03:08:29.310Z,99606.33
2023-11-13T03:13:31.459Z,99607.01
2023-11-13T03:18:33.423Z,99606.27
2023-11-13T03:23:35.437Z,99604.30
2023-11-13T03:28:37.485Z,99601.28
2023-11-13T03:33:39.605Z,99605.66
2023-11-13T03:38:41.778Z,99604.23
2023-11-13T03:43:43.807Z,99599.97
2023-11-13T03:48:46.245Z,99595.43
2023-11-13T03:53:48.317Z,99598.79
2023-11-13T03:58:50.753Z,99603.70
2023-11-13T04:03:53.369Z,99606.70
2023-11-13T04:08:55.784Z,99598.72
2023-11-13T04:13:58.336Z,99596.82
2023-11-13T04:19:00.393Z,99593.52
2023-11-13T04:24:02.725Z,99593.30
2023-11-13T04:29:04.811Z,99595.48
2023-11-13T04:34:07.082Z,99596.60
2023-11-13T04:39:10.400Z,99594.65
2023-11-13T04:44:12.529Z,99596.43
2023-11-13T04:49:14.894Z,99604.23
2023-11-13T04:54:17.116Z,99607.88
2023-11-13T04:59:19.325Z,99607.70
2023-11-13T05:04:21.948Z,99608.71
2023-11-13T05:09:24.713Z,99608.98
2023-11-13T05:14:26.685Z,99609.45
2023-11-13T05:19:29.717Z,99611.96
2023-11-13T05:24:32.030Z,99617.47
2023-11-13T05:29:34.681Z,99622.81
2023-11-13T05:34:36.862Z,99627.01
2023-11-13T05:39:39.021Z,99630.98
2023-11-13T05:44:41.255Z,99631.65
2023-11-13T05:49:43.765Z,99633.02
2023-11-13T05:54:46.570Z,99628.90
2023-11-13T05:59:49.656Z,99625.88
2023-11-13T06:04:51.861Z,99627.14
2023-11-13T06:09:53.960Z,99628.23
2023-11-13T06:14:56.032Z,99628.36
2023-11-13T06:19:58.447Z,99630.26
2023-11-13T06:25:00.560Z,99627.65
2023-11-13T06:30:04.028Z,99633.57
2023-11-13T06:35:09.591Z,99642.73
2023-11-13T06:40:12.200Z,99644.76
2023-11-13T06:45:16.102Z,99654.02
2023-11-13T06:50:19.548Z,99657.67
2023-11-13T06:55:21.812Z,99659.19
2023-11-13T07:00:24.406Z,99657.31
2023-11-13T07:05:26.651Z,99655.58
2023-11-13T07:10:37.575Z,99654.35
2023-11-13T07:15:41.966Z,99658.31
2023-11-13T07:20:44.336Z,99666.24
2023-11-13T07:25:46.923Z,99669.30
2023-11-13T07:30:49.406Z,99673.52
2023-11-13T07:35:51.734Z,99674.55
2023-11-13T07:40:53.786Z,99679.02
2023-11-13T07:45:59.383Z,99686.58
2023-11-13T08:00:58.485Z,99701.90
2023-11-13T08:06:29.930Z,99705.79
2023-11-13T08:11:33.570Z,99708.77
2023-11-13T08:16:48.829Z,99712.48
2023-11-13T08:22:11.963Z,99717.94
2023-11-13T08:27:20.676Z,99715.89
2023-11-13T08:32:24.382Z,99721.25
2023-11-13T08:37:33.393Z,99728.23
2023-11-13T08:42:45.216Z,99731.91
2023-11-13T08:47:52.681Z,99739.20
2023-11-13T08:52:58.296Z,99739.88
2023-11-13T08:58:20.000Z,99743.06
2023-11-13T09:03:33.829Z,99742.55
2023-11-13T09:08:43.982Z,99742.84
2023-11-13T09:13:48.442Z,99745.92
2023-11-13T09:18:55.649Z,99752.86
2023-11-13T09:23:59.737Z,99749.89
2023-11-13T09:29:19.626Z,99751.52
2023-11-13T09:34:29.070Z,99751.58
2023-11-13T09:39:45.345Z,99754.27
2023-11-13T09:44:56.438Z,99755.99
2023-11-13T10:15:01.207Z,99750.51
2023-11-13T10:20:05.885Z,99750.58
2023-11-13T10:25:10.423Z,99748.89
2023-11-13T10:30:13.914Z,99746.69
2023-11-13T10:35:28.690Z,99749.67
2023-11-13T10:40:32.205Z,99751.92
2023-11-13T10:45:34.692Z,99748.55
2023-11-13T10:50:37.388Z,99749.60
2023-11-13T10:55:42.874Z,99741.42
2023-11-13T11:00:45.402Z,99736.14
2023-11-13T11:05:52.532Z,99728.21
2023-11-13T11:10:55.539Z,99725.53
2023-11-13T11:16:51.382Z,99723.81
2023-11-13T11:22:01.046Z,99720.16
2023-11-13T11:27:04.640Z,99716.61
2023-11-13T11:32:15.781Z,99724.86
2023-11-13T11:37:18.017Z,99722.71
2023-11-13T11:42:24.975Z,99713.34
2023-11-13T11:47:37.194Z,99713.08
2023-11-13T11:53:04.911Z,99710.52
2023-11-13T11:58:15.990Z,99705.95
2023-11-13T12:03:18.301Z,99704.29
2023-11-13T12:08:22.068Z,99702.77
2023-11-13T12:19:18.915Z,99693.95
2023-11-13T12:34:21.416Z,99692.73
2023-11-13T12:39:27.706Z,99683.45
2023-11-13T12:44:35.068Z,99676.50
2023-11-13T12:49:40.061Z,99680.22
2023-11-13T12:54:50.164Z,99679.86
2023-11-13T12:59:53.693Z,99675.46
2023-11-13T13:04:59.697Z,99672.42
2023-11-13T13:10:05.267Z,99669.77
2023-11-13T13:15:18.183Z,99672.53
2023-11-13T13:20:35.207Z,99674.88
2023-11-13T13:25:41.593Z,99678.51
2023-11-13T13:30:46.044Z,99680.06
2023-11-13T13:35:51.833Z,99679.27
2023-11-13T13:40:55.339Z,99676.55
2023-11-13T13:45:59.878Z,99677.83
2023-11-13T13:51:06.955Z,99676.41
2023-11-13T13:56:11.944Z,99665.35
2023-11-13T14:01:15.388Z,99651.67
2023-11-13T14:06:18.883Z,99643.56
2023-11-13T14:11:32.384Z,99645.05
2023-11-13T14:16:41.700Z,99640.58
2023-11-13T14:21:47.265Z,99641.63
2023-11-13T14:26:50.835Z,99636.69
2023-11-13T14:31:57.032Z,99635.11
2023-11-13T14:37:03.221Z,99632.05
2023-11-13T14:42:09.757Z,99630.76
2023-11-13T14:47:14.069Z,99633.60
2023-11-13T14:52:17.740Z,99629.40
2023-11-13T14:57:21.602Z,99632.44
2023-11-13T15:02:25.035Z,99638.05
2023-11-13T15:07:28.495Z,99634.25
2023-11-13T15:12:33.868Z,99624.91
2023-11-13T15:17:42.232Z,99616.27
2023-11-13T15:27:56.905Z,99605.07
2023-11-13T15:33:05.599Z,99603.87
2023-11-13T15:38:09.908Z,99603.02
2023-11-13T15:43:13.968Z,99595.25
2023-11-13T15:48:18.672Z,99591.83
2023-11-13T15:53:23.040Z,99591.26
2023-11-13T15:58:26.538Z,99593.45
2023-11-13T16:03:37.057Z,99593.77
2023-11-13T16:08:45.807Z,99598.75
2023-11-13T16:13:52.725Z,99597.69
2023-11-13T16:18:57.599Z,99596.29
2023-11-13T16:24:01.250Z,99588.86
2023-11-13T16:29:08.007Z,99582.65
2023-11-13T16:34:13.748Z,99578.15
2023-11-13T16:39:17.733Z,99579.51
2023-11-13T16:44:22.111Z,99578.30
2023-11-13T16:49:25.756Z,99573.31
2023-11-13T16:54:29.824Z,99568.65
2023-11-13T16:59:33.320Z,99570.36
2023-11-13T17:04:37.075Z,99569.48
2023-11-13T17:09:42.500Z,99559.17
2023-11-13T17:14:45.993Z,99552.25
2023-11-13T17:19:57.073Z,99547.91
2023-11-13T17:25:01.623Z,99548.23
2023-11-13T17:30:08.105Z,99541.30
2023-11-13T17:35:11.537Z,99536.63
2023-11-13T17:40:15.619Z,99527.14
2023-11-13T17:45:25.324Z,99519.16
2023-11-13T17:50:28.769Z,99511.16
2023-11-13T17:55:32.382Z,99510.26
2023-11-13T18:00:35.869Z,99507.77
2023-11-13T18:05:39.439Z,99500.29
2023-11-13T18:10:43.189Z,99492.52
2023-11-13T18:15:48.713Z,99482.74
2023-11-13T18:20:54.706Z,99475.61
2023-11-13T18:26:01.586Z,99469.79
2023-11-13T18:31:05.587Z,99458.33
2023-11-13T18:36:09.391Z,99448.10
2023-11-13T18:41:13.756Z,99443.48
2023-11-13T18:46:17.384Z,99433.70
2023-11-13T18:51:21.607Z,99427.16
2023-11-13T18:56:26.436Z,99427.30
2023-11-13T19:01:30.289Z,99418.85
2023-11-13T19:06:41.006Z,99420.48
2023-11-13T19:11:44.501Z,99411.39
2023-11-13T19:16:48.048Z,99408.16
2023-11-13T19:21:51.430Z,99403.27
2023-11-13T19:26:54.986Z,99391.87
2023-11-13T19:32:01.286Z,99383.11
2023-11-13T19:37:05.243Z,99379.65
2023-11-13T19:42:09.108Z,99377.79
2023-11-13T19:47:13.563Z,99374.08
2023-11-13T19:52:17.184Z,99367.52
2023-11-13T19:57:21.124Z,99355.80
2023-11-13T20:02:24.783Z,99347.94
2023-11-13T20:07:29.242Z,99345.19
2023-11-13T20:12:32.697Z,99341.66
2023-11-13T20:17:37.216Z,99331.02
2023-11-13T20:22:40.830Z,99321.02
2023-11-13T20:27:44.629Z,99328.91
2023-11-13T20:32:48.147Z,99341.04
2023-11-13T20:37:51.688Z,99329.28
2023-11-13T20:42:55.163Z,99305.73
2023-11-13T20:47:58.848Z,99287.94
2023-11-13T20:53:02.768Z,99297.98
2023-11-13T20:58:09.141Z,99287.15
2023-11-13T21:03:13.219Z,99266.19
2023-11-13T21:08:16.934Z,99247.90
2023-11-13T21:13:21.194Z,99257.70
2023-11-13T21:18:24.714Z,99248.59
2023-11-13T21:23:28.292Z,99217.08
2023-11-13T21:28:36.464Z,99221.30
2023-11-13T21:33:41.244Z,99209.84
2023-11-13T21:38:47.039Z,99185.25
2023-11-13T21:43:50.461Z,99163.00
2023-11-13T21:48:53.868Z,99150.21
2023-11-13T21:54:00.799Z,99147.19
2023-11-13T21:59:05.064Z,99144.79
2023-11-13T22:04:08.511Z,99126.40
2023-11-13T22:09:12.116Z,99099.34
2023-11-13T22:14:15.620Z,99092.77
2023-11-13T22:19:20.985Z,99111.67
2023-11-13T22:24:24.367Z,99122.54
2023-11-13T22:29:29.005Z,99102.68
2023-11-13T22:34:32.583Z,99086.70
2023-11-13T22:39:36.976Z,99088.17
2023-11-13T22:44:40.605Z,99086.02
2023-11-13T22:49:43.953Z,99079.66
2023-11-13T22:54:47.456Z,99082.73
2023-11-13T22:59:51.004Z,99098.46
2023-11-13T23:04:56.551Z,99087.77
2023-11-13T23:10:00.297Z,99078.79
2023-11-13T23:15:06.042Z,99054.37
2023-11-13T23:20:13.386Z,99052.60
2023-11-13T23:25:17.338Z,99054.95
2023-11-13T23:30:20.767Z,99045.13
2023-11-13T23:35:24.445Z,99018.52
2023-11-13T23:40:27.870Z,98980.27
2023-11-13T23:45:31.501Z,98943.20
2023-11-13T23:50:34.822Z,98915.08
2023-11-13T23:55:38.236Z,98876.65
